createdAt,value
2022-09-28T00:01:18.389Z,96080.11
2022-09-28T00:03:47.341Z,96084.02
2022-09-28T00:06:18.630Z,96084.22
2022-09-28T00:08:49.220Z,96078.56
2022-09-28T00:11:20.217Z,96080.15
2022-09-28T00:13:55.602Z,96076.06
2022-09-28T00:16:28.114Z,96073.92
2022-09-28T00:18:55.780Z,96068.66
2022-09-28T00:21:27.126Z,96069.03
2022-09-28T00:24:12.668Z,96075.06
2022-09-28T00:26:47.905Z,96080.48
2022-09-28T00:29:26.454Z,96086.69
2022-09-28T00:32:00.630Z,96094.25
2022-09-28T00:34:38.040Z,96098.31
2022-09-28T00:37:08.443Z,96092.84
2022-09-28T00:39:37.729Z,96089.72
2022-09-28T00:42:15.740Z,96092.83
2022-09-28T00:44:57.798Z,96096.50
2022-09-28T00:47:51.816Z,96092.22
2022-09-28T00:50:30.671Z,96097.06
2022-09-28T00:53:10.692Z,96095.70
2022-09-28T00:55:58.450Z,96097.06
2022-09-28T00:58:33.608Z,96100.78
2022-09-28T01:01:01.791Z,96095.13
2022-09-28T01:03:29.776Z,96092.05
2022-09-28T01:05:59.973Z,96095.38
2022-09-28T01:08:29.733Z,96091.30
2022-09-28T01:10:59.601Z,96094.43
2022-09-28T01:13:31.016Z,96097.73
2022-09-28T01:16:49.810Z,96095.00
2022-09-28T01:19:54.931Z,96099.67
2022-09-28T01:22:42.775Z,96094.43
2022-09-28T01:25:46.742Z,96092.85
2022-09-28T01:28:16.306Z,96105.66
2022-09-28T01:31:09.938Z,96099.39
2022-09-28T01:33:48.282Z,96093.14
2022-09-28T01:36:21.112Z,96093.31
2022-09-28T01:38:55.993Z,96096.01
2022-09-28T01:41:28.532Z,96085.69
2022-09-28T01:44:01.811Z,96083.52
2022-09-28T01:46:34.251Z,96082.71
2022-09-28T01:49:11.364Z,96073.19
2022-09-28T01:51:56.127Z,96078.63
2022-09-28T01:54:34.863Z,96087.38
2022-09-28T01:57:23.811Z,96081.75
2022-09-28T02:00:08.295Z,96086.60
2022-09-28T02:03:04.350Z,96084.88
2022-09-28T02:05:39.750Z,96082.96
2022-09-28T02:08:21.565Z,96088.43
2022-09-28T02:10:56.342Z,96090.18
2022-09-28T02:13:35.283Z,96094.40
2022-09-28T02:16:20.024Z,96098.09
2022-09-28T02:18:50.477Z,96093.43
2022-09-28T02:21:35.630Z,96093.80
2022-09-28T02:24:10.934Z,96098.65
2022-09-28T02:26:42.940Z,96112.81
2022-09-28T02:29:10.757Z,96110.80
2022-09-28T02:31:38.534Z,96110.58
2022-09-28T02:34:06.135Z,96109.97
2022-09-28T02:36:34.292Z,96116.15
2022-09-28T02:39:02.176Z,96117.90
2022-09-28T02:41:41.494Z,96126.99
2022-09-28T02:44:35.471Z,96134.30
2022-09-28T02:47:14.354Z,96137.37
2022-09-28T02:50:09.092Z,96141.61
2022-09-28T02:53:03.512Z,96136.37
2022-09-28T02:55:55.261Z,96149.61
2022-09-28T02:58:50.302Z,96161.02
2022-09-28T03:02:04.562Z,96162.73
2022-09-28T03:04:49.779Z,96169.61
2022-09-28T03:07:30.664Z,96171.24
2022-09-28T03:10:18.300Z,96164.30
2022-09-28T03:12:48.856Z,96161.45
2022-09-28T03:15:24.352Z,96165.92
2022-09-28T03:17:53.045Z,96163.20
2022-09-28T03:20:20.868Z,96161.48
2022-09-28T03:23:05.903Z,96162.26
2022-09-28T03:25:18.283Z,96166.92
2022-09-28T03:27:45.971Z,96166.92
2022-09-28T03:30:15.474Z,96156.98
2022-09-28T03:32:44.859Z,96149.41
2022-09-28T03:35:12.802Z,96153.67
2022-09-28T03:37:40.209Z,96155.59
2022-09-28T03:40:08.701Z,96151.70
2022-09-28T03:42:37.371Z,96143.34
2022-09-28T03:45:06.712Z,96140.23
2022-09-28T03:47:34.600Z,96140.62
2022-09-28T03:50:02.226Z,96140.66
2022-09-28T03:52:30.119Z,96133.89
2022-09-28T03:54:57.734Z,96127.91
2022-09-28T03:57:25.348Z,96127.55
2022-09-28T03:59:52.944Z,96129.55
2022-09-28T04:02:20.396Z,96132.69
2022-09-28T04:04:47.927Z,96139.75
2022-09-28T04:07:15.475Z,96135.66
2022-09-28T04:09:43.339Z,96134.16
2022-09-28T04:12:10.839Z,96137.08
2022-09-28T04:14:38.405Z,96141.77
2022-09-28T04:17:06.826Z,96151.30
2022-09-28T04:19:34.376Z,96154.58
2022-09-28T04:22:13.855Z,96160.96
2022-09-28T04:24:43.094Z,96152.41
2022-09-28T04:27:28.995Z,96151.98
2022-09-28T04:29:56.567Z,96157.23
2022-09-28T04:32:24.076Z,96156.04
2022-09-28T04:34:52.010Z,96162.63
2022-09-28T04:37:19.558Z,96167.25
2022-09-28T04:39:48.589Z,96172.30
2022-09-28T04:42:18.192Z,96175.97
2022-09-28T04:44:46.051Z,96165.89
2022-09-28T04:47:13.693Z,96165.31
2022-09-28T04:50:01.339Z,96167.25
2022-09-28T04:52:30.609Z,96167.86
2022-09-28T04:54:58.156Z,96176.84
2022-09-28T04:57:26.747Z,96183.67
2022-09-28T04:59:55.054Z,96183.70
2022-09-28T05:02:22.545Z,96185.88
2022-09-28T05:05:08.816Z,96195.82
2022-09-28T05:07:41.438Z,96191.77
2022-09-28T05:10:09.229Z,96180.33
2022-09-28T05:12:38.228Z,96179.97
2022-09-28T05:15:06.605Z,96183.08
2022-09-28T05:17:34.458Z,96183.85
2022-09-28T05:20:05.032Z,96178.60
2022-09-28T05:22:33.077Z,96183.10
2022-09-28T05:25:02.493Z,96186.99
2022-09-28T05:27:31.967Z,96189.30
2022-09-28T05:30:01.299Z,96190.85
2022-09-28T05:32:31.282Z,96188.55
2022-09-28T05:35:12.915Z,96190.10
2022-09-28T05:37:45.424Z,96197.88
2022-09-28T05:40:13.675Z,96197.46
2022-09-28T05:42:41.941Z,96199.83
2022-09-28T05:45:10.478Z,96205.05
2022-09-28T05:47:43.029Z,96207.19
2022-09-28T05:50:14.835Z,96211.27
2022-09-28T05:52:43.962Z,96208.38
2022-09-28T05:55:11.655Z,96222.22
2022-09-28T05:57:39.257Z,96218.75
2022-09-28T06:00:09.693Z,96227.91
2022-09-28T06:02:40.237Z,96227.78
2022-09-28T06:05:09.662Z,96227.61
2022-09-28T06:07:37.067Z,96239.34
2022-09-28T06:10:05.860Z,96241.09
2022-09-28T06:12:35.283Z,96245.31
2022-09-28T06:15:06.457Z,96247.12
2022-09-28T06:17:34.239Z,96241.45
2022-09-28T06:20:11.314Z,96253.29
2022-09-28T06:22:55.016Z,96249.76
2022-09-28T06:25:24.445Z,96244.28
2022-09-28T06:28:01.422Z,96246.62
2022-09-28T06:30:31.958Z,96246.17
2022-09-28T06:33:01.744Z,96235.28
2022-09-28T06:35:31.665Z,96242.28
2022-09-28T06:38:00.027Z,96238.78
2022-09-28T06:40:28.569Z,96238.06
2022-09-28T06:43:01.870Z,96244.39
2022-09-28T06:45:31.114Z,96245.03
2022-09-28T06:48:07.969Z,96246.49
2022-09-28T06:50:42.616Z,96248.33
2022-09-28T06:53:15.520Z,96246.41
2022-09-28T06:55:51.143Z,96243.16
2022-09-28T06:58:20.531Z,96244.41
2022-09-28T07:00:51.337Z,96241.13
2022-09-28T07:03:21.717Z,96248.55
2022-09-28T07:05:54.587Z,96249.94
2022-09-28T07:08:35.708Z,96253.89
